sensor_id;sensor_type;location;lat;lon;timestamp;P1;durP1;ratioP1;P2;durP2;ratioP2
15858;SDS011;8029;52.202;7.308;2023-08-06T00:00:41;0.10;;;0.10;;
15858;SDS011;8029;52.202;7.308;2023-08-06T00:03:07;0.00;;;0.00;;
15858;SDS011;8029;52.202;7.308;2023-08-06T00:05:33;0.10;;;0.10;;
15858;SDS011;8029;52.202;7.308;2023-08-06T00:07:59;0.00;;;0.00;;
15858;SDS011;8029;52.202;7.308;2023-08-06T00:10:25;0.08;;;0.08;;
15858;SDS011;8029;52.202;7.308;2023-08-06T00:12:51;0.10;;;0.10;;
15858;SDS011;8029;52.202;7.308;2023-08-06T00:15:17;0.10;;;0.10;;
15858;SDS011;8029;52.202;7.308;2023-08-06T00:17:43;0.00;;;0.00;;
15858;SDS011;8029;52.202;7.308;2023-08-06T00:20:09;0.10;;;0.10;;
15858;SDS011;8029;52.202;7.308;2023-08-06T00:22:35;0.00;;;0.00;;
15858;SDS011;8029;52.202;7.308;2023-08-06T00:25:02;0.10;;;0.10;;
15858;SDS011;8029;52.202;7.308;2023-08-06T00:27:28;0.10;;;0.10;;
15858;SDS011;8029;52.202;7.308;2023-08-06T00:29:54;0.10;;;0.10;;
15858;SDS011;8029;52.202;7.308;2023-08-06T00:32:20;0.00;;;0.00;;
15858;SDS011;8029;52.202;7.308;2023-08-06T00:34:47;0.00;;;0.00;;
15858;SDS011;8029;52.202;7.308;2023-08-06T00:37:16;0.00;;;0.00;;
15858;SDS011;8029;52.202;7.308;2023-08-06T00:39:42;0.10;;;0.10;;
15858;SDS011;8029;52.202;7.308;2023-08-06T00:42:08;0.10;;;0.10;;
15858;SDS011;8029;52.202;7.308;2023-08-06T00:44:34;0.00;;;0.00;;
15858;SDS011;8029;52.202;7.308;2023-08-06T00:47:01;0.10;;;0.10;;
15858;SDS011;8029;52.202;7.308;2023-08-06T00:49:27;0.00;;;0.00;;
15858;SDS011;8029;52.202;7.308;2023-08-06T00:51:53;0.10;;;0.10;;
15858;SDS011;8029;52.202;7.308;2023-08-06T00:54:19;0.10;;;0.10;;
15858;SDS011;8029;52.202;7.308;2023-08-06T00:56:45;0.10;;;0.10;;
15858;SDS011;8029;52.202;7.308;2023-08-06T00:59:12;0.00;;;0.00;;
15858;SDS011;8029;52.202;7.308;2023-08-06T01:01:39;0.00;;;0.00;;
15858;SDS011;8029;52.202;7.308;2023-08-06T01:04:05;0.10;;;0.10;;
15858;SDS011;8029;52.202;7.308;2023-08-06T01:08:58;0.10;;;0.10;;
15858;SDS011;8029;52.202;7.308;2023-08-06T01:11:33;0.10;;;0.10;;
15858;SDS011;8029;52.202;7.308;2023-08-06T01:14:30;0.00;;;0.00;;
15858;SDS011;8029;52.202;7.308;2023-08-06T01:16:59;0.00;;;0.00;;
15858;SDS011;8029;52.202;7.308;2023-08-06T01:19:26;0.10;;;0.10;;
15858;SDS011;8029;52.202;7.308;2023-08-06T01:21:52;0.05;;;0.05;;
15858;SDS011;8029;52.202;7.308;2023-08-06T01:24:18;0.10;;;0.10;;
15858;SDS011;8029;52.202;7.308;2023-08-06T01:29:39;0.10;;;0.10;;
15858;SDS011;8029;52.202;7.308;2023-08-06T01:32:08;0.00;;;0.00;;
15858;SDS011;8029;52.202;7.308;2023-08-06T01:34:36;0.10;;;0.10;;
15858;SDS011;8029;52.202;7.308;2023-08-06T01:37:04;0.10;;;0.10;;
15858;SDS011;8029;52.202;7.308;2023-08-06T01:39:32;0.00;;;0.00;;
15858;SDS011;8029;52.202;7.308;2023-08-06T01:41:59;0.00;;;0.00;;
15858;SDS011;8029;52.202;7.308;2023-08-06T01:44:25;0.00;;;0.00;;
15858;SDS011;8029;52.202;7.308;2023-08-06T01:46:51;0.00;;;0.00;;
15858;SDS011;8029;52.202;7.308;2023-08-06T01:49:17;0.00;;;0.00;;
15858;SDS011;8029;52.202;7.308;2023-08-06T01:51:43;0.00;;;0.00;;
15858;SDS011;8029;52.202;7.308;2023-08-06T01:54:09;0.00;;;0.00;;
15858;SDS011;8029;52.202;7.308;2023-08-06T01:56:35;0.10;;;0.10;;
15858;SDS011;8029;52.202;7.308;2023-08-06T01:59:01;0.10;;;0.10;;
15858;SDS011;8029;52.202;7.308;2023-08-06T02:01:27;0.10;;;0.10;;
15858;SDS011;8029;52.202;7.308;2023-08-06T02:03:53;0.10;;;0.10;;
15858;SDS011;8029;52.202;7.308;2023-08-06T02:06:19;0.10;;;0.10;;
15858;SDS011;8029;52.202;7.308;2023-08-06T02:08:45;0.10;;;0.10;;
15858;SDS011;8029;52.202;7.308;2023-08-06T02:11:11;0.10;;;0.10;;
15858;SDS011;8029;52.202;7.308;2023-08-06T02:13:37;0.00;;;0.00;;
15858;SDS011;8029;52.202;7.308;2023-08-06T02:16:03;0.10;;;0.10;;
15858;SDS011;8029;52.202;7.308;2023-08-06T02:18:29;0.10;;;0.10;;
15858;SDS011;8029;52.202;7.308;2023-08-06T02:20:55;0.00;;;0.00;;
15858;SDS011;8029;52.202;7.308;2023-08-06T02:23:22;0.00;;;0.00;;
15858;SDS011;8029;52.202;7.308;2023-08-06T02:25:48;0.10;;;0.10;;
15858;SDS011;8029;52.202;7.308;2023-08-06T02:28:14;0.00;;;0.00;;
15858;SDS011;8029;52.202;7.308;2023-08-06T02:30:48;0.00;;;0.00;;
15858;SDS011;8029;52.202;7.308;2023-08-06T02:33:14;0.00;;;0.00;;
15858;SDS011;8029;52.202;7.308;2023-08-06T02:35:40;0.03;;;0.03;;
15858;SDS011;8029;52.202;7.308;2023-08-06T02:38:06;0.00;;;0.00;;
15858;SDS011;8029;52.202;7.308;2023-08-06T02:40:32;0.00;;;0.00;;
15858;SDS011;8029;52.202;7.308;2023-08-06T02:42:58;0.00;;;0.00;;
15858;SDS011;8029;52.202;7.308;2023-08-06T02:45:24;0.00;;;0.00;;
15858;SDS011;8029;52.202;7.308;2023-08-06T02:47:50;0.00;;;0.00;;
15858;SDS011;8029;52.202;7.308;2023-08-06T02:50:16;0.10;;;0.10;;
15858;SDS011;8029;52.202;7.308;2023-08-06T02:52:42;0.10;;;0.10;;
15858;SDS011;8029;52.202;7.308;2023-08-06T02:55:08;0.10;;;0.10;;
15858;SDS011;8029;52.202;7.308;2023-08-06T02:57:34;0.00;;;0.00;;
15858;SDS011;8029;52.202;7.308;2023-08-06T03:00:00;0.10;;;0.10;;
15858;SDS011;8029;52.202;7.308;2023-08-06T03:02:26;0.00;;;0.00;;
15858;SDS011;8029;52.202;7.308;2023-08-06T03:04:52;0.10;;;0.10;;
15858;SDS011;8029;52.202;7.308;2023-08-06T03:07:18;0.00;;;0.00;;
15858;SDS011;8029;52.202;7.308;2023-08-06T03:09:44;0.08;;;0.08;;
15858;SDS011;8029;52.202;7.308;2023-08-06T03:12:10;0.10;;;0.10;;
15858;SDS011;8029;52.202;7.308;2023-08-06T03:14:35;0.05;;;0.05;;
15858;SDS011;8029;52.202;7.308;2023-08-06T03:17:02;0.10;;;0.10;;
15858;SDS011;8029;52.202;7.308;2023-08-06T03:19:28;0.00;;;0.00;;
15858;SDS011;8029;52.202;7.308;2023-08-06T03:21:53;0.00;;;0.00;;
15858;SDS011;8029;52.202;7.308;2023-08-06T03:24:19;0.00;;;0.00;;
15858;SDS011;8029;52.202;7.308;2023-08-06T03:26:45;0.00;;;0.00;;
15858;SDS011;8029;52.202;7.308;2023-08-06T03:29:11;0.00;;;0.00;;
15858;SDS011;8029;52.202;7.308;2023-08-06T03:31:37;0.10;;;0.10;;
15858;SDS011;8029;52.202;7.308;2023-08-06T03:34:03;0.00;;;0.00;;
15858;SDS011;8029;52.202;7.308;2023-08-06T03:36:29;0.10;;;0.10;;
15858;SDS011;8029;52.202;7.308;2023-08-06T03:38:55;0.05;;;0.05;;
15858;SDS011;8029;52.202;7.308;2023-08-06T03:41:21;0.00;;;0.00;;
15858;SDS011;8029;52.202;7.308;2023-08-06T03:43:47;0.00;;;0.00;;
15858;SDS011;8029;52.202;7.308;2023-08-06T03:46:13;0.00;;;0.00;;
15858;SDS011;8029;52.202;7.308;2023-08-06T03:48:39;0.00;;;0.00;;
15858;SDS011;8029;52.202;7.308;2023-08-06T03:51:05;0.00;;;0.00;;
15858;SDS011;8029;52.202;7.308;2023-08-06T03:53:31;0.10;;;0.10;;
15858;SDS011;8029;52.202;7.308;2023-08-06T03:55:57;0.10;;;0.10;;
15858;SDS011;8029;52.202;7.308;2023-08-06T03:58:25;0.00;;;0.00;;
15858;SDS011;8029;52.202;7.308;2023-08-06T04:00:58;0.00;;;0.00;;
15858;SDS011;8029;52.202;7.308;2023-08-06T04:03:24;0.10;;;0.10;;
15858;SDS011;8029;52.202;7.308;2023-08-06T04:05:51;0.00;;;0.00;;
15858;SDS011;8029;52.202;7.308;2023-08-06T04:08:17;0.00;;;0.00;;
15858;SDS011;8029;52.202;7.308;2023-08-06T04:10:43;0.00;;;0.00;;
15858;SDS011;8029;52.202;7.308;2023-08-06T04:13:08;0.10;;;0.10;;
15858;SDS011;8029;52.202;7.308;2023-08-06T04:15:34;0.10;;;0.10;;
15858;SDS011;8029;52.202;7.308;2023-08-06T04:18:00;0.03;;;0.03;;
15858;SDS011;8029;52.202;7.308;2023-08-06T04:20:26;0.10;;;0.10;;
15858;SDS011;8029;52.202;7.308;2023-08-06T04:22:54;0.00;;;0.00;;
15858;SDS011;8029;52.202;7.308;2023-08-06T04:25:20;0.10;;;0.10;;
15858;SDS011;8029;52.202;7.308;2023-08-06T04:27:47;0.10;;;0.10;;
15858;SDS011;8029;52.202;7.308;2023-08-06T04:30:13;0.10;;;0.10;;
15858;SDS011;8029;52.202;7.308;2023-08-06T04:32:39;0.00;;;0.00;;
15858;SDS011;8029;52.202;7.308;2023-08-06T04:35:05;0.10;;;0.10;;
15858;SDS011;8029;52.202;7.308;2023-08-06T04:37:31;0.00;;;0.00;;
15858;SDS011;8029;52.202;7.308;2023-08-06T04:39:57;0.03;;;0.03;;
15858;SDS011;8029;52.202;7.308;2023-08-06T04:42:23;0.00;;;0.00;;
15858;SDS011;8029;52.202;7.308;2023-08-06T04:44:49;0.00;;;0.00;;
15858;SDS011;8029;52.202;7.308;2023-08-06T04:47:16;0.00;;;0.00;;
15858;SDS011;8029;52.202;7.308;2023-08-06T04:49:41;0.00;;;0.00;;
15858;SDS011;8029;52.202;7.308;2023-08-06T04:52:07;0.00;;;0.00;;
15858;SDS011;8029;52.202;7.308;2023-08-06T04:54:33;0.00;;;0.00;;
15858;SDS011;8029;52.202;7.308;2023-08-06T04:56:59;0.10;;;0.10;;
15858;SDS011;8029;52.202;7.308;2023-08-06T04:59:25;0.10;;;0.10;;
15858;SDS011;8029;52.202;7.308;2023-08-06T05:01:51;0.10;;;0.10;;
15858;SDS011;8029;52.202;7.308;2023-08-06T05:04:17;0.10;;;0.10;;
15858;SDS011;8029;52.202;7.308;2023-08-06T05:06:43;0.00;;;0.00;;
15858;SDS011;8029;52.202;7.308;2023-08-06T05:09:09;0.10;;;0.10;;
15858;SDS011;8029;52.202;7.308;2023-08-06T05:11:35;0.10;;;0.10;;
15858;SDS011;8029;52.202;7.308;2023-08-06T05:14:01;0.00;;;0.00;;
15858;SDS011;8029;52.202;7.308;2023-08-06T05:16:27;0.10;;;0.10;;
15858;SDS011;8029;52.202;7.308;2023-08-06T05:18:53;0.10;;;0.10;;
15858;SDS011;8029;52.202;7.308;2023-08-06T05:21:19;0.10;;;0.10;;
15858;SDS011;8029;52.202;7.308;2023-08-06T05:23:45;0.10;;;0.10;;
15858;SDS011;8029;52.202;7.308;2023-08-06T05:26:11;0.00;;;0.00;;
15858;SDS011;8029;52.202;7.308;2023-08-06T05:28:39;0.10;;;0.10;;
15858;SDS011;8029;52.202;7.308;2023-08-06T05:31:06;0.08;;;0.08;;
15858;SDS011;8029;52.202;7.308;2023-08-06T05:33:32;0.00;;;0.00;;
15858;SDS011;8029;52.202;7.308;2023-08-06T05:35:58;0.00;;;0.00;;
15858;SDS011;8029;52.202;7.308;2023-08-06T05:38:24;0.10;;;0.10;;
15858;SDS011;8029;52.202;7.308;2023-08-06T05:40:50;0.10;;;0.10;;
15858;SDS011;8029;52.202;7.308;2023-08-06T05:43:16;0.10;;;0.10;;
15858;SDS011;8029;52.202;7.308;2023-08-06T05:45:45;0.10;;;0.10;;
15858;SDS011;8029;52.202;7.308;2023-08-06T05:48:11;0.00;;;0.00;;
15858;SDS011;8029;52.202;7.308;2023-08-06T05:50:37;0.10;;;0.10;;
15858;SDS011;8029;52.202;7.308;2023-08-06T05:53:03;0.08;;;0.08;;
15858;SDS011;8029;52.202;7.308;2023-08-06T05:55:29;0.00;;;0.00;;
15858;SDS011;8029;52.202;7.308;2023-08-06T05:57:57;0.00;;;0.00;;
15858;SDS011;8029;52.202;7.308;2023-08-06T06:00:23;0.00;;;0.00;;
15858;SDS011;8029;52.202;7.308;2023-08-06T06:02:49;0.10;;;0.10;;
15858;SDS011;8029;52.202;7.308;2023-08-06T06:05:15;0.10;;;0.10;;
15858;SDS011;8029;52.202;7.308;2023-08-06T06:07:41;0.00;;;0.00;;
15858;SDS011;8029;52.202;7.308;2023-08-06T06:10:07;0.10;;;0.10;;
15858;SDS011;8029;52.202;7.308;2023-08-06T06:12:33;0.10;;;0.10;;
15858;SDS011;8029;52.202;7.308;2023-08-06T06:14:59;0.00;;;0.00;;
15858;SDS011;8029;52.202;7.308;2023-08-06T06:17:26;0.10;;;0.10;;
15858;SDS011;8029;52.202;7.308;2023-08-06T06:19:52;0.00;;;0.00;;
15858;SDS011;8029;52.202;7.308;2023-08-06T06:22:18;0.10;;;0.10;;
15858;SDS011;8029;52.202;7.308;2023-08-06T06:24:44;0.00;;;0.00;;
15858;SDS011;8029;52.202;7.308;2023-08-06T06:27:10;0.00;;;0.00;;
15858;SDS011;8029;52.202;7.308;2023-08-06T06:29:36;0.10;;;0.10;;
15858;SDS011;8029;52.202;7.308;2023-08-06T06:32:02;0.00;;;0.00;;
15858;SDS011;8029;52.202;7.308;2023-08-06T06:34:28;0.00;;;0.00;;
15858;SDS011;8029;52.202;7.308;2023-08-06T06:36:54;0.00;;;0.00;;
15858;SDS011;8029;52.202;7.308;2023-08-06T06:39:20;0.00;;;0.00;;
15858;SDS011;8029;52.202;7.308;2023-08-06T06:41:46;0.10;;;0.10;;
15858;SDS011;8029;52.202;7.308;2023-08-06T06:44:13;0.00;;;0.00;;
15858;SDS011;8029;52.202;7.308;2023-08-06T06:46:40;0.00;;;0.00;;
15858;SDS011;8029;52.202;7.308;2023-08-06T06:49:06;0.00;;;0.00;;
15858;SDS011;8029;52.202;7.308;2023-08-06T06:51:31;0.05;;;0.05;;
15858;SDS011;8029;52.202;7.308;2023-08-06T06:53:58;0.10;;;0.10;;
15858;SDS011;8029;52.202;7.308;2023-08-06T06:56:23;0.10;;;0.10;;
15858;SDS011;8029;52.202;7.308;2023-08-06T06:58:49;0.00;;;0.00;;
15858;SDS011;8029;52.202;7.308;2023-08-06T07:01:15;0.00;;;0.00;;
15858;SDS011;8029;52.202;7.308;2023-08-06T07:03:41;0.05;;;0.05;;
15858;SDS011;8029;52.202;7.308;2023-08-06T07:06:07;0.00;;;0.00;;
15858;SDS011;8029;52.202;7.308;2023-08-06T07:08:33;0.00;;;0.00;;
15858;SDS011;8029;52.202;7.308;2023-08-06T07:11:00;0.00;;;0.00;;
15858;SDS011;8029;52.202;7.308;2023-08-06T07:13:27;0.00;;;0.00;;
15858;SDS011;8029;52.202;7.308;2023-08-06T07:15:54;0.10;;;0.10;;
15858;SDS011;8029;52.202;7.308;2023-08-06T07:18:20;0.03;;;0.03;;
15858;SDS011;8029;52.202;7.308;2023-08-06T07:20:49;0.00;;;0.00;;
15858;SDS011;8029;52.202;7.308;2023-08-06T07:23:16;0.00;;;0.00;;
15858;SDS011;8029;52.202;7.308;2023-08-06T07:25:42;0.10;;;0.10;;
15858;SDS011;8029;52.202;7.308;2023-08-06T07:28:08;0.00;;;0.00;;
15858;SDS011;8029;52.202;7.308;2023-08-06T07:30:38;0.10;;;0.10;;
15858;SDS011;8029;52.202;7.308;2023-08-06T07:33:04;0.00;;;0.00;;
15858;SDS011;8029;52.202;7.308;2023-08-06T07:35:30;0.00;;;0.00;;
15858;SDS011;8029;52.202;7.308;2023-08-06T07:37:56;0.00;;;0.00;;
15858;SDS011;8029;52.202;7.308;2023-08-06T07:40:22;0.03;;;0.03;;
15858;SDS011;8029;52.202;7.308;2023-08-06T07:42:48;0.10;;;0.10;;
15858;SDS011;8029;52.202;7.308;2023-08-06T07:45:14;0.00;;;0.00;;
15858;SDS011;8029;52.202;7.308;2023-08-06T07:47:40;0.00;;;0.00;;
15858;SDS011;8029;52.202;7.308;2023-08-06T07:50:07;0.10;;;0.10;;
15858;SDS011;8029;52.202;7.308;2023-08-06T07:52:33;0.00;;;0.00;;
15858;SDS011;8029;52.202;7.308;2023-08-06T07:54:59;0.10;;;0.10;;
15858;SDS011;8029;52.202;7.308;2023-08-06T07:57:27;0.10;;;0.10;;
15858;SDS011;8029;52.202;7.308;2023-08-06T07:59:53;0.10;;;0.10;;
15858;SDS011;8029;52.202;7.308;2023-08-06T08:02:19;0.00;;;0.00;;
15858;SDS011;8029;52.202;7.308;2023-08-06T08:04:45;0.00;;;0.00;;
15858;SDS011;8029;52.202;7.308;2023-08-06T08:07:12;0.00;;;0.00;;
15858;SDS011;8029;52.202;7.308;2023-08-06T08:09:38;0.10;;;0.10;;
15858;SDS011;8029;52.202;7.308;2023-08-06T08:12:04;0.10;;;0.10;;
15858;SDS011;8029;52.202;7.308;2023-08-06T08:14:30;0.00;;;0.00;;
15858;SDS011;8029;52.202;7.308;2023-08-06T08:17:01;0.00;;;0.00;;
15858;SDS011;8029;52.202;7.308;2023-08-06T08:19:27;0.00;;;0.00;;
15858;SDS011;8029;52.202;7.308;2023-08-06T08:21:53;0.00;;;0.00;;
15858;SDS011;8029;52.202;7.308;2023-08-06T08:24:20;0.10;;;0.10;;
15858;SDS011;8029;52.202;7.308;2023-08-06T08:26:48;0.10;;;0.10;;
15858;SDS011;8029;52.202;7.308;2023-08-06T08:29:14;0.00;;;0.00;;
15858;SDS011;8029;52.202;7.308;2023-08-06T08:31:40;0.08;;;0.08;;
15858;SDS011;8029;52.202;7.308;2023-08-06T08:34:06;0.00;;;0.00;;
15858;SDS011;8029;52.202;7.308;2023-08-06T08:36:32;0.00;;;0.00;;
15858;SDS011;8029;52.202;7.308;2023-08-06T08:38:58;0.10;;;0.10;;
15858;SDS011;8029;52.202;7.308;2023-08-06T08:41:24;0.10;;;0.10;;
15858;SDS011;8029;52.202;7.308;2023-08-06T08:43:50;0.00;;;0.00;;
15858;SDS011;8029;52.202;7.308;2023-08-06T08:46:17;0.00;;;0.00;;
15858;SDS011;8029;52.202;7.308;2023-08-06T08:48:44;0.05;;;0.05;;
15858;SDS011;8029;52.202;7.308;2023-08-06T08:51:10;0.00;;;0.00;;
15858;SDS011;8029;52.202;7.308;2023-08-06T08:53:37;0.08;;;0.08;;
15858;SDS011;8029;52.202;7.308;2023-08-06T08:56:04;0.00;;;0.00;;
15858;SDS011;8029;52.202;7.308;2023-08-06T08:58:30;0.10;;;0.10;;
15858;SDS011;8029;52.202;7.308;2023-08-06T09:00:56;0.10;;;0.10;;
15858;SDS011;8029;52.202;7.308;2023-08-06T09:03:23;0.10;;;0.10;;
15858;SDS011;8029;52.202;7.308;2023-08-06T09:05:50;0.10;;;0.10;;
15858;SDS011;8029;52.202;7.308;2023-08-06T09:08:18;0.00;;;0.00;;
15858;SDS011;8029;52.202;7.308;2023-08-06T09:10:44;0.10;;;0.10;;
15858;SDS011;8029;52.202;7.308;2023-08-06T09:13:11;0.10;;;0.10;;
15858;SDS011;8029;52.202;7.308;2023-08-06T09:15:38;0.10;;;0.10;;
15858;SDS011;8029;52.202;7.308;2023-08-06T09:18:11;0.10;;;0.10;;
15858;SDS011;8029;52.202;7.308;2023-08-06T09:20:40;0.10;;;0.10;;
15858;SDS011;8029;52.202;7.308;2023-08-06T09:23:09;0.00;;;0.00;;
15858;SDS011;8029;52.202;7.308;2023-08-06T09:25:37;0.00;;;0.00;;
15858;SDS011;8029;52.202;7.308;2023-08-06T09:28:07;0.00;;;0.00;;
15858;SDS011;8029;52.202;7.308;2023-08-06T09:30:33;0.00;;;0.00;;
15858;SDS011;8029;52.202;7.308;2023-08-06T09:33:00;0.00;;;0.00;;
15858;SDS011;8029;52.202;7.308;2023-08-06T09:35:29;0.00;;;0.00;;
15858;SDS011;8029;52.202;7.308;2023-08-06T09:38:04;0.08;;;0.08;;
15858;SDS011;8029;52.202;7.308;2023-08-06T09:40:32;0.00;;;0.00;;
15858;SDS011;8029;52.202;7.308;2023-08-06T09:42:58;0.00;;;0.00;;
15858;SDS011;8029;52.202;7.308;2023-08-06T09:45:31;0.00;;;0.00;;
15858;SDS011;8029;52.202;7.308;2023-08-06T09:47:58;0.00;;;0.00;;
15858;SDS011;8029;52.202;7.308;2023-08-06T09:50:28;0.10;;;0.10;;
15858;SDS011;8029;52.202;7.308;2023-08-06T09:52:55;0.00;;;0.00;;
15858;SDS011;8029;52.202;7.308;2023-08-06T09:55:21;0.03;;;0.03;;
15858;SDS011;8029;52.202;7.308;2023-08-06T09:57:48;0.00;;;0.00;;
15858;SDS011;8029;52.202;7.308;2023-08-06T10:00:16;0.00;;;0.00;;
15858;SDS011;8029;52.202;7.308;2023-08-06T10:02:42;0.00;;;0.00;;
15858;SDS011;8029;52.202;7.308;2023-08-06T10:05:08;0.00;;;0.00;;
15858;SDS011;8029;52.202;7.308;2023-08-06T10:07:35;0.10;;;0.10;;
15858;SDS011;8029;52.202;7.308;2023-08-06T10:10:02;0.00;;;0.00;;
15858;SDS011;8029;52.202;7.308;2023-08-06T10:12:29;0.00;;;0.00;;
15858;SDS011;8029;52.202;7.308;2023-08-06T10:14:59;0.00;;;0.00;;
15858;SDS011;8029;52.202;7.308;2023-08-06T10:17:25;0.00;;;0.00;;
15858;SDS011;8029;52.202;7.308;2023-08-06T10:19:52;0.00;;;0.00;;
15858;SDS011;8029;52.202;7.308;2023-08-06T10:22:20;0.08;;;0.08;;
15858;SDS011;8029;52.202;7.308;2023-08-06T10:24:50;0.00;;;0.00;;
15858;SDS011;8029;52.202;7.308;2023-08-06T10:27:35;0.00;;;0.00;;
15858;SDS011;8029;52.202;7.308;2023-08-06T10:33:02;0.10;;;0.10;;
15858;SDS011;8029;52.202;7.308;2023-08-06T10:38:10;0.00;;;0.00;;
15858;SDS011;8029;52.202;7.308;2023-08-06T10:40:36;0.03;;;0.03;;
15858;SDS011;8029;52.202;7.308;2023-08-06T10:43:03;0.00;;;0.00;;
15858;SDS011;8029;52.202;7.308;2023-08-06T10:45:34;0.00;;;0.00;;
15858;SDS011;8029;52.202;7.308;2023-08-06T10:48:00;0.00;;;0.00;;
15858;SDS011;8029;52.202;7.308;2023-08-06T10:50:26;0.00;;;0.00;;
15858;SDS011;8029;52.202;7.308;2023-08-06T10:52:52;0.00;;;0.00;;
15858;SDS011;8029;52.202;7.308;2023-08-06T10:55:22;0.00;;;0.00;;
15858;SDS011;8029;52.202;7.308;2023-08-06T10:57:49;0.00;;;0.00;;
15858;SDS011;8029;52.202;7.308;2023-08-06T11:00:15;0.00;;;0.00;;
15858;SDS011;8029;52.202;7.308;2023-08-06T11:02:41;0.00;;;0.00;;
15858;SDS011;8029;52.202;7.308;2023-08-06T11:05:09;0.00;;;0.00;;
15858;SDS011;8029;52.202;7.308;2023-08-06T11:07:35;0.00;;;0.00;;
15858;SDS011;8029;52.202;7.308;2023-08-06T11:10:02;0.00;;;0.00;;
15858;SDS011;8029;52.202;7.308;2023-08-06T11:12:28;0.22;;;0.22;;
15858;SDS011;8029;52.202;7.308;2023-08-06T11:14:54;1.20;;;1.10;;
15858;SDS011;8029;52.202;7.308;2023-08-06T11:17:21;1.50;;;1.40;;
15858;SDS011;8029;52.202;7.308;2023-08-06T11:19:47;1.60;;;1.50;;
15858;SDS011;8029;52.202;7.308;2023-08-06T11:22:14;1.90;;;1.73;;
15858;SDS011;8029;52.202;7.308;2023-08-06T11:24:40;1.33;;;1.23;;
15858;SDS011;8029;52.202;7.308;2023-08-06T11:27:12;1.38;;;1.27;;
15858;SDS011;8029;52.202;7.308;2023-08-06T11:29:39;1.70;;;1.60;;
15858;SDS011;8029;52.202;7.308;2023-08-06T11:32:05;1.70;;;1.60;;
15858;SDS011;8029;52.202;7.308;2023-08-06T11:34:31;2.88;;;2.05;;
15858;SDS011;8029;52.202;7.308;2023-08-06T11:36:57;1.42;;;1.33;;
15858;SDS011;8029;52.202;7.308;2023-08-06T11:39:23;1.13;;;1.13;;
15858;SDS011;8029;52.202;7.308;2023-08-06T11:41:50;1.58;;;1.48;;
15858;SDS011;8029;52.202;7.308;2023-08-06T11:44:18;1.70;;;1.60;;
15858;SDS011;8029;52.202;7.308;2023-08-06T11:46:54;1.35;;;1.25;;
15858;SDS011;8029;52.202;7.308;2023-08-06T11:49:42;1.90;;;1.63;;
15858;SDS011;8029;52.202;7.308;2023-08-06T11:52:21;1.90;;;1.40;;
15858;SDS011;8029;52.202;7.308;2023-08-06T11:55:06;1.85;;;1.75;;
15858;SDS011;8029;52.202;7.308;2023-08-06T11:57:35;2.55;;;1.80;;
15858;SDS011;8029;52.202;7.308;2023-08-06T12:00:11;2.35;;;2.00;;
15858;SDS011;8029;52.202;7.308;2023-08-06T12:02:38;2.22;;;2.13;;
15858;SDS011;8029;52.202;7.308;2023-08-06T12:07:39;1.63;;;1.52;;
15858;SDS011;8029;52.202;7.308;2023-08-06T12:10:05;1.65;;;1.55;;
15858;SDS011;8029;52.202;7.308;2023-08-06T12:12:31;4.05;;;2.72;;
15858;SDS011;8029;52.202;7.308;2023-08-06T12:14:57;2.85;;;2.55;;
15858;SDS011;8029;52.202;7.308;2023-08-06T12:17:26;2.58;;;2.38;;
15858;SDS011;8029;52.202;7.308;2023-08-06T12:19:52;2.65;;;2.45;;
15858;SDS011;8029;52.202;7.308;2023-08-06T12:22:18;2.83;;;2.63;;
15858;SDS011;8029;52.202;7.308;2023-08-06T12:24:45;4.28;;;2.80;;
15858;SDS011;8029;52.202;7.308;2023-08-06T12:27:12;4.13;;;3.60;;
15858;SDS011;8029;52.202;7.308;2023-08-06T12:29:45;3.17;;;2.67;;
15858;SDS011;8029;52.202;7.308;2023-08-06T12:32:11;3.33;;;2.75;;
15858;SDS011;8029;52.202;7.308;2023-08-06T12:34:38;2.60;;;2.45;;
15858;SDS011;8029;52.202;7.308;2023-08-06T12:37:04;2.58;;;2.47;;
15858;SDS011;8029;52.202;7.308;2023-08-06T12:39:31;3.28;;;3.03;;
15858;SDS011;8029;52.202;7.308;2023-08-06T12:41:58;2.05;;;1.95;;
15858;SDS011;8029;52.202;7.308;2023-08-06T12:44:24;5.18;;;2.53;;
15858;SDS011;8029;52.202;7.308;2023-08-06T12:46:50;1.67;;;1.58;;
15858;SDS011;8029;52.202;7.308;2023-08-06T12:49:17;2.60;;;2.15;;
15858;SDS011;8029;52.202;7.308;2023-08-06T12:51:43;1.73;;;1.63;;
15858;SDS011;8029;52.202;7.308;2023-08-06T12:54:09;2.63;;;2.42;;
15858;SDS011;8029;52.202;7.308;2023-08-06T12:56:35;1.70;;;1.60;;
15858;SDS011;8029;52.202;7.308;2023-08-06T12:59:01;1.50;;;1.38;;
15858;SDS011;8029;52.202;7.308;2023-08-06T13:01:27;1.40;;;1.30;;
15858;SDS011;8029;52.202;7.308;2023-08-06T13:03:53;1.17;;;1.15;;
15858;SDS011;8029;52.202;7.308;2023-08-06T13:06:19;1.80;;;1.35;;
15858;SDS011;8029;52.202;7.308;2023-08-06T13:08:45;2.17;;;1.98;;
15858;SDS011;8029;52.202;7.308;2023-08-06T13:11:11;1.83;;;1.67;;
15858;SDS011;8029;52.202;7.308;2023-08-06T13:13:37;1.73;;;1.63;;
15858;SDS011;8029;52.202;7.308;2023-08-06T13:16:03;1.73;;;1.63;;
15858;SDS011;8029;52.202;7.308;2023-08-06T13:18:29;1.42;;;1.30;;
15858;SDS011;8029;52.202;7.308;2023-08-06T13:20:56;1.33;;;1.25;;
15858;SDS011;8029;52.202;7.308;2023-08-06T13:23:22;1.65;;;1.48;;
15858;SDS011;8029;52.202;7.308;2023-08-06T13:25:47;0.88;;;0.88;;
15858;SDS011;8029;52.202;7.308;2023-08-06T13:28:13;0.90;;;0.90;;
15858;SDS011;8029;52.202;7.308;2023-08-06T13:30:40;0.95;;;0.95;;
15858;SDS011;8029;52.202;7.308;2023-08-06T13:33:09;1.65;;;1.30;;
15858;SDS011;8029;52.202;7.308;2023-08-06T13:35:35;0.85;;;0.85;;
15858;SDS011;8029;52.202;7.308;2023-08-06T13:38:01;1.23;;;1.20;;
15858;SDS011;8029;52.202;7.308;2023-08-06T13:40:31;1.20;;;1.10;;
15858;SDS011;8029;52.202;7.308;2023-08-06T13:42:58;1.25;;;1.15;;
15858;SDS011;8029;52.202;7.308;2023-08-06T13:45:24;1.27;;;1.13;;
15858;SDS011;8029;52.202;7.308;2023-08-06T13:47:50;1.38;;;1.27;;
15858;SDS011;8029;52.202;7.308;2023-08-06T13:50:16;1.20;;;1.08;;
15858;SDS011;8029;52.202;7.308;2023-08-06T13:52:42;1.02;;;0.95;;
15858;SDS011;8029;52.202;7.308;2023-08-06T13:55:08;1.77;;;1.33;;
15858;SDS011;8029;52.202;7.308;2023-08-06T13:57:34;3.20;;;1.42;;
15858;SDS011;8029;52.202;7.308;2023-08-06T14:00:01;0.85;;;0.85;;
15858;SDS011;8029;52.202;7.308;2023-08-06T14:02:27;1.30;;;1.20;;
15858;SDS011;8029;52.202;7.308;2023-08-06T14:04:53;2.28;;;2.08;;
15858;SDS011;8029;52.202;7.308;2023-08-06T14:07:19;4.88;;;1.90;;
15858;SDS011;8029;52.202;7.308;2023-08-06T14:09:45;1.10;;;1.10;;
15858;SDS011;8029;52.202;7.308;2023-08-06T14:12:12;1.67;;;1.27;;
15858;SDS011;8029;52.202;7.308;2023-08-06T14:14:38;2.15;;;1.55;;
15858;SDS011;8029;52.202;7.308;2023-08-06T14:17:04;1.73;;;1.63;;
15858;SDS011;8029;52.202;7.308;2023-08-06T14:19:30;1.60;;;1.50;;
15858;SDS011;8029;52.202;7.308;2023-08-06T14:21:56;1.92;;;1.83;;
15858;SDS011;8029;52.202;7.308;2023-08-06T14:24:22;0.90;;;0.90;;
15858;SDS011;8029;52.202;7.308;2023-08-06T14:26:48;0.85;;;0.85;;
15858;SDS011;8029;52.202;7.308;2023-08-06T14:29:14;0.70;;;0.70;;
15858;SDS011;8029;52.202;7.308;2023-08-06T14:31:40;1.13;;;1.02;;
15858;SDS011;8029;52.202;7.308;2023-08-06T14:34:07;0.70;;;0.70;;
15858;SDS011;8029;52.202;7.308;2023-08-06T14:36:33;1.30;;;1.20;;
15858;SDS011;8029;52.202;7.308;2023-08-06T14:38:59;3.47;;;1.90;;
15858;SDS011;8029;52.202;7.308;2023-08-06T14:41:25;2.67;;;1.45;;
15858;SDS011;8029;52.202;7.308;2023-08-06T14:43:50;1.48;;;1.38;;
15858;SDS011;8029;52.202;7.308;2023-08-06T14:46:16;0.82;;;0.82;;
15858;SDS011;8029;52.202;7.308;2023-08-06T14:48:42;2.40;;;1.10;;
15858;SDS011;8029;52.202;7.308;2023-08-06T14:51:08;0.93;;;0.93;;
15858;SDS011;8029;52.202;7.308;2023-08-06T14:53:34;1.50;;;1.40;;
15858;SDS011;8029;52.202;7.308;2023-08-06T14:56:00;1.02;;;0.93;;
15858;SDS011;8029;52.202;7.308;2023-08-06T14:58:26;0.90;;;0.90;;
15858;SDS011;8029;52.202;7.308;2023-08-06T15:00:52;1.25;;;1.15;;
15858;SDS011;8029;52.202;7.308;2023-08-06T15:03:18;0.75;;;0.75;;
15858;SDS011;8029;52.202;7.308;2023-08-06T15:05:48;0.50;;;0.50;;
15858;SDS011;8029;52.202;7.308;2023-08-06T15:08:14;0.80;;;0.70;;
15858;SDS011;8029;52.202;7.308;2023-08-06T15:10:40;0.50;;;0.50;;